Istanbul, Turki

04:36 PM EEST on September 01, 2014 (GMT +0300)
Ataturk | Change Station
CLOSE
Current Station
Airport
Location: Istanbul,
Elevation: 121 ft
Nearby Weather Stations

Elev 121 ft 40.98 °N, 28.81 °E | Updated 16 minutes ago

Mostly Cloudy
Mendung Merata
81 °F
Feels Like 82 °F
N
10
Angin Variable Angin from Arah Timur Laut

Siang Ini
High -- | Low -- °F
--% Chance of Precip.
Yesterday
High -- | Low -- °F
Precip. -- Inch
6:31 AM 7:37 PM
Waxing Crescent, 41% visible
Tekanan 29.77 Inch
Jarak Pandang 6.2 Mil
Awan Mendung Merata 3500 ft
Ideks Panas 82 °F
Titik Embun 63 °F
Kelembaban 54%
Rainfall 0.00 Inch
Snow Depth Not available.
UV 2 out of 12
Pollen Not available.
Air Quality Not available.
Flu Activity Not available.
METAR LTBA 011320Z 04009KT 360V080 9999 BKN035 27/17 Q1008 NOSIG RMK RWY17L 03012KT RWY05 02010KT RWY23 02012KT

More Conditions Fewer Conditions

Tekanan 29.77 Inch
Jarak Pandang 6.2 Mil
Awan Mendung Merata 3500 ft
Ideks Panas 82 °F
Titik Embun 63 °F
Kelembaban 54%
Rainfall 0.00 Inch
Snow Depth Not available.
UV 2 out of 12
Pollen Not available.
Air Quality Not available.
Flu Activity Not available.
METAR LTBA 011320Z 04009KT 360V080 9999 BKN035 27/17 Q1008 NOSIG RMK RWY17L 03012KT RWY05 02010KT RWY23 02012KT

More Conditions Fewer Conditions

10-Day Weather Forecast

Almanac

Astronomi

Sep. 01, 2014 Rise Set
Actual Time 6:31 AM EEST 7:37 PM EEST
Civil Twilight 6:02 AM EEST 8:05 PM EEST
Nautical Twilight 5:29 AM EEST 8:39 PM EEST
Astronomical Twilight 4:53 AM EEST 9:14 PM EEST
Moon 1:00 PM EEST 11:19 PM EEST
Length Of Visible Light 14h 02m
Lama Satu Hari
13h 06m
Tomorrow will be 2m 36s shorter.
Waxing Crescent, 41% of the Moon is Illuminated
Siang Ini
Waxing Crescent
Sep 2
Triwulan Pertama
Sep 8
Bulan Purnama
Sep 15
Kuartil Terakhir
Sep 24
New

Yesterday's Extremes

Country Highs Country Lows

Community

WunderPhotos

Upload Photos

1,749,217 photos uploaded!

Nearby

Snow Depth

Not available.

Earthquake Activity

City Distance Mag. Time & Date
No recent earthquake activity has been reported nearby.
Minimum magnitude displayed is 2.5.

Coastal Water Temperatures

Lokasi Temperatur
No Stations Reporting

Nearby Weather Stations